createdAt,value
2019-03-25T00:00:06.900Z,99560.73
2019-03-25T00:02:36.301Z,99558.84
2019-03-25T00:05:06.584Z,99556.81
2019-03-25T00:07:35.770Z,99548.44
2019-03-25T00:10:06.006Z,99546.73
2019-03-25T00:12:35.227Z,99545.90
2019-03-25T00:15:06.412Z,99544.52
2019-03-25T00:17:35.593Z,99546.22
2019-03-25T00:20:06.259Z,99543.50
2019-03-25T00:22:35.460Z,99544.03
2019-03-25T00:25:05.986Z,99533.12
2019-03-25T00:27:35.192Z,99526.97
2019-03-25T00:30:05.011Z,99523.06
2019-03-25T00:32:34.246Z,99522.55
2019-03-25T00:35:03.867Z,99524.09
2019-03-25T00:37:33.039Z,99521.87
2019-03-25T00:40:02.277Z,99519.66
2019-03-25T00:42:31.464Z,99524.26
2019-03-25T00:45:00.642Z,99524.25
2019-03-25T00:47:29.955Z,99522.22
2019-03-25T00:49:59.280Z,99526.14
2019-03-25T00:52:28.464Z,99517.28
2019-03-25T00:54:57.881Z,99519.50
2019-03-25T00:57:27.061Z,99516.59
2019-03-25T00:59:56.236Z,99514.72
2019-03-25T01:02:25.507Z,99512.13
2019-03-25T01:04:54.713Z,99509.61
2019-03-25T01:07:24.014Z,99503.80
2019-03-25T01:09:53.205Z,99500.75
2019-03-25T01:12:22.457Z,99496.30
2019-03-25T01:14:51.751Z,99491.55
2019-03-25T01:17:20.928Z,99489.83
2019-03-25T01:19:50.177Z,99480.98
2019-03-25T01:22:19.536Z,99485.08
2019-03-25T01:24:48.718Z,99480.11
2019-03-25T01:27:17.920Z,99476.72
2019-03-25T01:29:47.210Z,99475.36
2019-03-25T01:32:16.439Z,99463.78
2019-03-25T01:34:45.630Z,99466.33
2019-03-25T01:37:14.886Z,99462.57
2019-03-25T01:39:44.086Z,99457.30
2019-03-25T01:42:13.268Z,99460.36
2019-03-25T01:44:42.586Z,99455.42
2019-03-25T01:47:11.763Z,99449.45
2019-03-25T01:49:41.012Z,99439.06
2019-03-25T01:52:10.308Z,99443.66
2019-03-25T01:54:39.496Z,99439.06
2019-03-25T01:57:08.685Z,99441.45
2019-03-25T01:59:37.885Z,99435.13
2019-03-25T02:02:07.152Z,99432.73
2019-03-25T02:04:36.433Z,99425.58
2019-03-25T02:07:06.402Z,99430.19
2019-03-25T02:09:35.727Z,99425.25
2019-03-25T02:12:04.982Z,99426.43
2019-03-25T02:14:34.174Z,99419.95
2019-03-25T02:17:03.455Z,99419.28
2019-03-25T02:19:32.635Z,99419.61
2019-03-25T02:22:01.890Z,99421.97
2019-03-25T02:24:31.077Z,99408.66
2019-03-25T02:27:00.272Z,99406.45
2019-03-25T02:29:29.479Z,99405.08
2019-03-25T02:31:58.692Z,99401.32
2019-03-25T02:34:27.947Z,99397.75
2019-03-25T02:36:57.292Z,99392.34
2019-03-25T02:39:26.531Z,99393.34
2019-03-25T02:41:55.775Z,99391.50
2019-03-25T02:44:24.968Z,99382.29
2019-03-25T02:46:54.304Z,99378.72
2019-03-25T02:49:23.575Z,99377.36
2019-03-25T02:51:52.769Z,99371.42
2019-03-25T02:54:22.049Z,99371.91
2019-03-25T02:56:51.282Z,99362.53
2019-03-25T02:59:20.478Z,99361.31
2019-03-25T03:01:49.645Z,99357.28
2019-03-25T03:04:18.902Z,99349.99
2019-03-25T03:06:48.151Z,99341.30
2019-03-25T03:09:17.428Z,99348.11
2019-03-25T03:11:46.635Z,99339.73
2019-03-25T03:14:15.835Z,99339.70
2019-03-25T03:16:45.143Z,99341.43
2019-03-25T03:19:14.352Z,99339.88
2019-03-25T03:21:43.616Z,99335.08
2019-03-25T03:24:12.981Z,99332.34
2019-03-25T03:26:42.232Z,99336.25
2019-03-25T03:29:11.539Z,99339.31
2019-03-25T03:31:40.815Z,99335.22
2019-03-25T03:34:10.070Z,99328.26
2019-03-25T03:36:39.275Z,99325.16
2019-03-25T03:39:08.609Z,99325.34
2019-03-25T03:41:37.847Z,99322.48
2019-03-25T03:44:07.094Z,99314.96
2019-03-25T03:46:36.285Z,99318.73
2019-03-25T03:49:05.746Z,99317.38
2019-03-25T03:51:34.934Z,99316.01
2019-03-25T03:54:04.190Z,99307.31
2019-03-25T03:56:33.398Z,99311.06
2019-03-25T03:59:02.581Z,99305.43
2019-03-25T04:01:31.784Z,99305.95
2019-03-25T04:04:00.963Z,99299.31
2019-03-25T04:06:30.197Z,99304.06
2019-03-25T04:08:59.372Z,99297.09
2019-03-25T04:11:28.697Z,99296.12
2019-03-25T04:13:57.903Z,99297.30
2019-03-25T04:16:27.087Z,99291.84
2019-03-25T04:18:56.321Z,99281.60
2019-03-25T04:21:25.641Z,99277.89
2019-03-25T04:23:54.888Z,99273.61
2019-03-25T04:26:29.018Z,99272.44
2019-03-25T04:28:55.150Z,99267.33
2019-03-25T04:31:24.418Z,99274.55
2019-03-25T04:33:53.675Z,99272.00
2019-03-25T04:36:22.834Z,99270.45
2019-03-25T04:38:52.093Z,99265.00
2019-03-25T04:41:21.331Z,99267.20
2019-03-25T04:43:50.512Z,99266.02
2019-03-25T04:46:19.691Z,99264.27
2019-03-25T04:48:48.909Z,99259.98
2019-03-25T04:51:18.164Z,99254.39
2019-03-25T04:53:47.341Z,99249.46
2019-03-25T04:56:16.572Z,99250.12
2019-03-25T04:58:46.037Z,99240.72
2019-03-25T05:01:15.326Z,99244.13
2019-03-25T05:03:44.667Z,99248.88
2019-03-25T05:06:13.858Z,99246.64
2019-03-25T05:08:43.027Z,99246.77
2019-03-25T05:11:12.254Z,99247.09
2019-03-25T05:13:41.444Z,99249.28
2019-03-25T05:16:10.714Z,99251.83
2019-03-25T05:18:40.136Z,99248.59
2019-03-25T05:21:09.382Z,99248.23
2019-03-25T05:23:38.707Z,99247.00
2019-03-25T05:26:07.987Z,99246.66
2019-03-25T05:28:37.161Z,99246.26
2019-03-25T05:31:06.505Z,99240.16
2019-03-25T05:33:35.710Z,99231.79
2019-03-25T05:36:05.579Z,99232.10
2019-03-25T05:38:36.425Z,99233.56
2019-03-25T05:41:05.679Z,99229.25
2019-03-25T05:43:35.051Z,99230.70
2019-03-25T05:46:04.316Z,99225.52
2019-03-25T05:48:33.706Z,99225.92
2019-03-25T05:51:03.235Z,99228.24
2019-03-25T05:53:32.880Z,99221.29
2019-03-25T05:56:02.078Z,99215.23
2019-03-25T05:58:31.331Z,99203.78
2019-03-25T06:01:00.709Z,99201.14
2019-03-25T06:03:30.076Z,99207.86
2019-03-25T06:06:01.059Z,99197.14
2019-03-25T06:08:30.488Z,99186.16
2019-03-25T06:10:59.837Z,99193.56
2019-03-25T06:13:29.303Z,99195.45
2019-03-25T06:15:58.631Z,99182.11
2019-03-25T06:18:28.077Z,99196.25
2019-03-25T06:20:57.491Z,99194.84
2019-03-25T06:23:26.763Z,99192.47
2019-03-25T06:25:56.191Z,99192.34
2019-03-25T06:28:25.374Z,99194.27
2019-03-25T06:30:54.737Z,99191.05
2019-03-25T06:33:24.005Z,99194.20
2019-03-25T06:35:53.221Z,99189.96
2019-03-25T06:38:22.678Z,99189.92
2019-03-25T06:40:51.987Z,99188.35
2019-03-25T06:43:21.347Z,99180.55
2019-03-25T06:45:50.834Z,99186.34
2019-03-25T06:48:20.015Z,99182.09
2019-03-25T06:50:49.348Z,99171.59
2019-03-25T06:53:18.843Z,99175.28
2019-03-25T06:55:48.025Z,99176.04
2019-03-25T06:58:17.283Z,99181.81
2019-03-25T07:00:46.645Z,99178.42
2019-03-25T07:03:15.908Z,99178.78
2019-03-25T07:05:45.362Z,99167.94
2019-03-25T07:08:14.742Z,99161.86
2019-03-25T07:10:44.047Z,99160.41
2019-03-25T07:13:13.357Z,99159.97
2019-03-25T07:15:44.202Z,99163.99
2019-03-25T07:18:13.879Z,99163.33
2019-03-25T07:20:43.152Z,99159.83
2019-03-25T07:23:12.849Z,99159.18
2019-03-25T07:25:42.025Z,99163.67
2019-03-25T07:28:11.361Z,99154.77
2019-03-25T07:30:40.675Z,99154.31
2019-03-25T07:33:09.908Z,99164.88
2019-03-25T07:35:39.181Z,99156.17
2019-03-25T07:38:08.587Z,99155.40
2019-03-25T07:40:37.895Z,99148.34
2019-03-25T07:43:07.570Z,99156.61
2019-03-25T07:45:36.748Z,99145.73
2019-03-25T07:48:06.065Z,99146.59
2019-03-25T07:50:35.488Z,99142.11
2019-03-25T07:53:04.832Z,99134.69
2019-03-25T07:55:34.339Z,99126.89
2019-03-25T07:58:03.633Z,99123.53
2019-03-25T08:00:32.881Z,99123.92
2019-03-25T08:03:02.322Z,99125.37
2019-03-25T08:05:31.632Z,99121.17
2019-03-25T08:08:00.882Z,99125.70
2019-03-25T08:10:35.380Z,99121.52
2019-03-25T08:13:04.862Z,99120.75
2019-03-25T08:15:34.292Z,99124.97
2019-03-25T08:18:03.761Z,99125.78
2019-03-25T08:20:33.033Z,99120.88
2019-03-25T08:23:02.345Z,99113.31
2019-03-25T08:25:31.615Z,99122.11
2019-03-25T08:28:00.863Z,99123.75
2019-03-25T08:30:30.090Z,99118.00
2019-03-25T08:32:59.489Z,99119.07
2019-03-25T08:35:28.799Z,99117.98
2019-03-25T08:37:58.080Z,99122.25
2019-03-25T08:40:27.397Z,99124.91
2019-03-25T08:42:57.474Z,99120.69
2019-03-25T08:45:26.873Z,99126.06
2019-03-25T08:47:56.190Z,99122.16
2019-03-25T08:50:25.411Z,99124.03
2019-03-25T08:52:54.854Z,99120.34
2019-03-25T08:55:24.209Z,99119.40
2019-03-25T08:57:53.621Z,99123.00
2019-03-25T09:00:23.068Z,99119.91
2019-03-25T09:02:52.356Z,99115.17
2019-03-25T09:05:21.531Z,99116.20
2019-03-25T09:07:50.957Z,99109.88
2019-03-25T09:10:20.263Z,99115.40
2019-03-25T09:12:49.629Z,99103.29
2019-03-25T09:15:19.044Z,99102.31
2019-03-25T09:17:48.385Z,99094.87
2019-03-25T09:20:17.762Z,99095.55
2019-03-25T09:22:47.605Z,99094.10
2019-03-25T09:25:16.920Z,99094.59
2019-03-25T09:27:46.277Z,99092.36
2019-03-25T09:30:18.794Z,99090.78
2019-03-25T09:32:48.416Z,99094.93
2019-03-25T09:35:17.826Z,99087.94
2019-03-25T09:37:47.231Z,99092.30
2019-03-25T09:40:16.542Z,99086.03
2019-03-25T09:42:45.935Z,99089.41
2019-03-25T09:45:15.254Z,99086.87
2019-03-25T09:47:44.716Z,99075.22
2019-03-25T09:50:14.299Z,99073.84
2019-03-25T09:52:43.618Z,99076.73
2019-03-25T09:55:12.948Z,99082.37
2019-03-25T09:57:42.308Z,99071.55
2019-03-25T10:00:11.764Z,99068.48
2019-03-25T10:02:41.144Z,99067.95
2019-03-25T10:05:10.511Z,99061.48
2019-03-25T10:07:39.799Z,99062.23
2019-03-25T10:10:09.249Z,99067.77
2019-03-25T10:12:38.569Z,99066.53
2019-03-25T10:15:09.919Z,99060.02
2019-03-25T10:17:39.465Z,99064.22
2019-03-25T10:20:08.848Z,99062.88
2019-03-25T10:22:38.200Z,99062.72
2019-03-25T10:25:08.301Z,99061.17
2019-03-25T10:27:37.543Z,99058.66
2019-03-25T10:30:14.852Z,99060.58
2019-03-25T10:32:44.181Z,99048.36
2019-03-25T10:35:13.506Z,99051.70
2019-03-25T10:37:42.808Z,99043.61
2019-03-25T10:40:12.186Z,99045.02
2019-03-25T10:42:41.502Z,99048.63
2019-03-25T10:45:10.913Z,99053.41
2019-03-25T10:47:40.253Z,99052.59
2019-03-25T10:50:10.344Z,99059.53
2019-03-25T10:52:39.747Z,99061.90
2019-03-25T10:55:09.569Z,99052.49
2019-03-25T10:57:38.815Z,99059.77
2019-03-25T11:00:08.938Z,99049.45
2019-03-25T11:02:38.295Z,99050.02
2019-03-25T11:05:07.595Z,99047.20
2019-03-25T11:07:37.122Z,99049.22
2019-03-25T11:10:08.098Z,99050.90
2019-03-25T11:12:37.357Z,99038.77
2019-03-25T11:15:07.823Z,99042.83
2019-03-25T11:17:37.316Z,99045.04
2019-03-25T11:20:08.518Z,99042.22
2019-03-25T11:22:37.900Z,99041.69
2019-03-25T11:25:07.281Z,99034.16
2019-03-25T11:27:36.673Z,99035.00
2019-03-25T11:30:09.591Z,99032.80
2019-03-25T11:32:38.986Z,99028.45
2019-03-25T11:35:08.972Z,99025.78
2019-03-25T11:37:38.385Z,99019.92
2019-03-25T12:20:24.044Z,98993.70
2019-03-25T12:22:53.281Z,98991.47
2019-03-25T12:25:22.460Z,99000.74
2019-03-25T12:27:51.693Z,98995.86
2019-03-25T12:30:20.871Z,98994.77
2019-03-25T12:32:50.054Z,98984.66
2019-03-25T12:35:19.337Z,98981.40
2019-03-25T12:37:48.599Z,98979.11
2019-03-25T12:40:17.843Z,98980.56
2019-03-25T12:42:47.134Z,98984.19
2019-03-25T12:45:16.308Z,98982.19
2019-03-25T12:47:45.595Z,98973.91
2019-03-25T12:50:14.810Z,98982.20
2019-03-25T12:52:44.179Z,98967.81
2019-03-25T12:55:13.392Z,98975.88
2019-03-25T12:57:42.650Z,98973.32
2019-03-25T13:00:11.892Z,98971.33
2019-03-25T13:02:41.082Z,98972.14
2019-03-25T13:05:10.379Z,98976.33
2019-03-25T13:07:39.620Z,98971.13
2019-03-25T13:10:08.787Z,98978.63
2019-03-25T13:12:38.059Z,98977.14
2019-03-25T13:15:07.503Z,98967.00
2019-03-25T13:17:36.750Z,98966.63
2019-03-25T13:20:06.857Z,98963.95
2019-03-25T13:22:36.026Z,98962.50
2019-03-25T13:25:05.909Z,98958.45
2019-03-25T13:27:35.103Z,98960.36
2019-03-25T13:30:06.788Z,98962.23
2019-03-25T13:32:36.105Z,98960.50
2019-03-25T13:35:08.565Z,98952.05
2019-03-25T13:37:37.240Z,98944.25
2019-03-25T13:40:07.772Z,98943.31
2019-03-25T13:42:37.091Z,98945.78
2019-03-25T13:45:06.830Z,98949.98
2019-03-25T13:47:36.006Z,98944.90
2019-03-25T13:50:06.434Z,98950.83
2019-03-25T13:52:35.708Z,98954.69
2019-03-25T13:55:05.864Z,98946.70
2019-03-25T13:57:35.103Z,98942.33
2019-03-25T14:00:06.589Z,98945.45
2019-03-25T14:02:35.804Z,98946.64
2019-03-25T14:05:05.765Z,98951.52
2019-03-25T14:07:34.955Z,98961.96
2019-03-25T14:10:08.806Z,98961.59
2019-03-25T14:12:37.975Z,98958.63
2019-03-25T14:15:08.016Z,98958.63
2019-03-25T14:17:37.263Z,98954.14
2019-03-25T14:20:07.711Z,98961.08
2019-03-25T14:22:37.197Z,98956.78
2019-03-25T14:25:06.517Z,98959.17
2019-03-25T14:27:35.684Z,98959.59
2019-03-25T14:30:14.505Z,98963.56
2019-03-25T14:32:38.738Z,98954.72
2019-03-25T14:35:07.924Z,98963.48
2019-03-25T14:37:37.166Z,98960.59
2019-03-25T14:40:07.676Z,98957.16
2019-03-25T14:42:37.977Z,98957.39
2019-03-25T14:45:07.450Z,98966.89
2019-03-25T14:47:36.749Z,98968.52
2019-03-25T14:50:08.930Z,98969.98
2019-03-25T14:52:38.116Z,98969.25
2019-03-25T14:55:29.521Z,98965.95
2019-03-25T14:57:55.108Z,98981.18
2019-03-25T15:00:25.558Z,98976.25
2019-03-25T15:02:54.928Z,98976.15
2019-03-25T15:05:24.202Z,98974.16
2019-03-25T15:07:53.551Z,98980.95
2019-03-25T15:10:22.791Z,98975.33
2019-03-25T15:12:51.960Z,98978.23
2019-03-25T15:15:21.353Z,98978.91
2019-03-25T15:17:50.521Z,98972.95
2019-03-25T15:20:19.801Z,98980.62
2019-03-25T15:22:49.023Z,98980.59
2019-03-25T15:25:18.338Z,98979.23
2019-03-25T15:27:47.836Z,98987.42
2019-03-25T15:30:17.018Z,98987.73
2019-03-25T15:32:46.192Z,98993.47
2019-03-25T15:35:15.395Z,99000.91
2019-03-25T15:37:44.568Z,98996.26
2019-03-25T15:40:15.999Z,98994.95
2019-03-25T15:42:46.327Z,99002.98
2019-03-25T15:45:15.529Z,99010.50
2019-03-25T15:47:47.136Z,99010.66
2019-03-25T15:50:15.928Z,99008.06
2019-03-25T15:52:45.205Z,99011.20
2019-03-25T15:55:14.383Z,99013.85
2019-03-25T15:57:43.585Z,99018.52
2019-03-25T16:00:16.894Z,99021.43
2019-03-25T16:02:46.070Z,99023.28
2019-03-25T16:05:15.663Z,99035.36
2019-03-25T16:07:44.953Z,99034.60
2019-03-25T16:10:15.886Z,99033.02
2019-03-25T16:12:45.630Z,99044.31
2019-03-25T16:15:20.937Z,99048.08
2019-03-25T16:17:50.117Z,99050.77
2019-03-25T16:20:19.441Z,99061.50
2019-03-25T16:22:48.632Z,99065.59
2019-03-25T16:25:26.152Z,99068.47
2019-03-25T16:27:55.463Z,99076.34
2019-03-25T16:30:24.669Z,99074.68
2019-03-25T16:32:54.079Z,99082.12
2019-03-25T16:35:23.698Z,99075.96
2019-03-25T16:37:52.940Z,99084.75
2019-03-25T16:40:22.114Z,99088.55
2019-03-25T16:42:51.338Z,99087.92
2019-03-25T16:45:20.550Z,99091.45
2019-03-25T16:47:49.786Z,99086.56
2019-03-25T16:50:19.103Z,99096.36
2019-03-25T16:52:48.311Z,99099.09
2019-03-25T16:55:17.555Z,99106.25
2019-03-25T16:57:46.894Z,99105.11
2019-03-25T17:00:26.877Z,99112.30
2019-03-25T17:02:47.227Z,99115.94
2019-03-25T17:05:16.461Z,99113.20
2019-03-25T17:07:45.633Z,99120.64
2019-03-25T17:10:14.805Z,99123.61
2019-03-25T17:12:44.016Z,99126.36
2019-03-25T17:15:13.331Z,99128.80
2019-03-25T17:17:42.493Z,99125.67
2019-03-25T17:20:11.808Z,99133.91
2019-03-25T17:22:41.074Z,99136.31
2019-03-25T17:25:10.337Z,99144.14
2019-03-25T17:27:39.588Z,99136.40
2019-03-25T17:30:17.014Z,99141.88
2019-03-25T17:32:46.186Z,99153.08
2019-03-25T17:35:15.361Z,99150.41
2019-03-25T17:37:44.674Z,99154.28
2019-03-25T17:40:13.882Z,99157.06
2019-03-25T17:42:43.165Z,99159.02
2019-03-25T17:45:12.407Z,99167.97
2019-03-25T17:47:41.653Z,99166.73
2019-03-25T17:50:10.911Z,99164.10
2019-03-25T17:52:40.157Z,99170.34
2019-03-25T17:55:09.342Z,99174.20
2019-03-25T17:57:38.597Z,99182.84
2019-03-25T18:00:09.748Z,99175.55
2019-03-25T18:02:39.133Z,99186.01
2019-03-25T18:05:08.650Z,99186.76
2019-03-25T18:07:37.896Z,99190.59
2019-03-25T18:10:08.007Z,99188.13
2019-03-25T18:12:38.948Z,99190.07
2019-03-25T18:15:11.868Z,99187.38
2019-03-25T18:17:41.047Z,99193.13
2019-03-25T18:20:18.573Z,99192.95
2019-03-25T18:22:41.348Z,99193.76
2019-03-25T18:25:10.622Z,99201.37
2019-03-25T18:27:39.942Z,99207.79
2019-03-25T18:30:09.186Z,99216.34
2019-03-25T18:32:38.436Z,99212.38
2019-03-25T18:35:07.613Z,99209.36
2019-03-25T18:37:36.846Z,99219.01
2019-03-25T18:40:06.146Z,99223.30
2019-03-25T18:42:35.395Z,99226.27
2019-03-25T18:45:05.614Z,99233.31
2019-03-25T18:47:34.844Z,99236.05
2019-03-25T18:50:07.553Z,99240.45
2019-03-25T18:52:36.860Z,99237.45
2019-03-25T18:55:07.689Z,99241.30
2019-03-25T18:57:37.023Z,99237.26
2019-03-25T19:00:08.889Z,99246.56
2019-03-25T19:02:38.097Z,99237.86
2019-03-25T19:05:07.549Z,99236.48
2019-03-25T19:07:36.729Z,99246.80
2019-03-25T19:10:08.739Z,99243.38
2019-03-25T19:12:37.975Z,99243.39
2019-03-25T19:15:08.282Z,99251.08
2019-03-25T19:17:37.573Z,99257.16
2019-03-25T19:20:07.182Z,99265.02
2019-03-25T19:22:36.393Z,99267.42
2019-03-25T19:25:06.198Z,99270.52
2019-03-25T19:27:35.378Z,99274.36
2019-03-25T19:30:07.517Z,99277.50
2019-03-25T19:32:36.768Z,99279.27
2019-03-25T19:35:07.259Z,99283.80
2019-03-25T19:37:37.082Z,99281.58
2019-03-25T19:40:09.237Z,99287.22
2019-03-25T19:42:38.486Z,99284.78
2019-03-25T19:45:08.614Z,99282.24
2019-03-25T19:47:37.897Z,99295.91
2019-03-25T19:50:07.797Z,99294.02
2019-03-25T19:52:37.022Z,99298.78
2019-03-25T19:55:06.346Z,99306.09
2019-03-25T19:57:37.179Z,99306.53
2019-03-25T20:00:09.737Z,99310.75
2019-03-25T20:02:39.060Z,99309.15
2019-03-25T20:05:08.356Z,99318.06
2019-03-25T20:07:37.624Z,99321.28
2019-03-25T20:10:09.524Z,99323.51
2019-03-25T20:12:38.892Z,99324.67
2019-03-25T20:15:08.218Z,99330.48
2019-03-25T20:17:37.536Z,99334.00
2019-03-25T20:20:06.932Z,99341.33
2019-03-25T20:22:36.248Z,99339.30
2019-03-25T20:25:06.913Z,99344.22
2019-03-25T20:27:36.253Z,99359.40
2019-03-25T20:30:11.782Z,99358.34
2019-03-25T20:32:41.150Z,99363.17
2019-03-25T20:35:10.420Z,99362.75
2019-03-25T20:37:39.682Z,99370.94
2019-03-25T20:40:08.974Z,99362.59
2019-03-25T20:42:38.184Z,99378.80
2019-03-25T20:45:08.290Z,99382.95
2019-03-25T20:47:37.420Z,99388.23
2019-03-25T20:50:06.957Z,99387.72
2019-03-25T20:52:36.590Z,99386.36
2019-03-25T20:55:06.870Z,99391.28
2019-03-25T20:57:36.109Z,99393.88
2019-03-25T21:00:09.745Z,99398.86
2019-03-25T21:02:44.913Z,99401.49
2019-03-25T21:05:09.933Z,99408.97
2019-03-25T21:07:39.261Z,99411.05
2019-03-25T21:10:08.747Z,99407.95
2019-03-25T21:12:38.667Z,99413.15
2019-03-25T21:15:08.631Z,99407.52
2019-03-25T21:17:38.134Z,99413.82
2019-03-25T21:20:09.404Z,99411.59
2019-03-25T21:22:39.162Z,99409.62
2019-03-25T21:25:08.373Z,99422.97
2019-03-25T21:27:37.613Z,99426.97
2019-03-25T21:30:07.601Z,99431.11
2019-03-25T21:32:36.889Z,99428.14
2019-03-25T21:35:06.899Z,99439.19
2019-03-25T21:37:36.415Z,99440.28
2019-03-25T21:40:07.098Z,99443.83
2019-03-25T21:42:36.512Z,99438.31
2019-03-25T21:45:08.356Z,99442.49
2019-03-25T21:47:37.656Z,99435.84
2019-03-25T21:50:06.975Z,99438.47
2019-03-25T21:52:36.341Z,99439.22
2019-03-25T21:55:06.702Z,99447.91
2019-03-25T21:57:35.963Z,99450.42
2019-03-25T22:00:07.091Z,99442.86
2019-03-25T22:02:36.382Z,99443.33
2019-03-25T22:05:06.815Z,99448.25
2019-03-25T22:07:36.037Z,99452.16
2019-03-25T22:10:05.313Z,99451.22
2019-03-25T22:12:34.845Z,99459.87
2019-03-25T22:15:07.222Z,99466.53
2019-03-25T22:17:35.808Z,99480.51
2019-03-25T22:20:08.514Z,99472.88
2019-03-25T22:22:37.700Z,99478.94
2019-03-25T22:25:08.172Z,99482.03
2019-03-25T22:27:37.397Z,99475.03
2019-03-25T22:30:09.834Z,99484.97
2019-03-25T22:32:38.475Z,99492.52
2019-03-25T22:35:07.763Z,99491.37
2019-03-25T22:37:36.941Z,99491.31
2019-03-25T22:40:07.553Z,99494.88
2019-03-25T22:42:36.784Z,99498.27
2019-03-25T22:45:07.591Z,99506.68
2019-03-25T22:47:36.940Z,99504.62
2019-03-25T22:50:07.786Z,99497.18
2019-03-25T22:52:36.955Z,99505.45
2019-03-25T22:55:07.078Z,99512.39
2019-03-25T22:57:36.293Z,99513.58
2019-03-25T23:00:07.264Z,99502.88
2019-03-25T23:02:36.425Z,99512.13
2019-03-25T23:05:06.481Z,99515.66
2019-03-25T23:07:35.779Z,99517.69
2019-03-25T23:10:05.375Z,99517.18
2019-03-25T23:12:34.555Z,99518.33
2019-03-25T23:15:04.764Z,99518.52
2019-03-25T23:17:33.973Z,99523.75
2019-03-25T23:20:03.141Z,99525.97
2019-03-25T23:22:32.322Z,99530.81
2019-03-25T23:25:01.556Z,99535.97
2019-03-25T23:27:30.802Z,99541.59
2019-03-25T23:30:00.165Z,99539.77
2019-03-25T23:32:29.392Z,99542.88
2019-03-25T23:34:58.614Z,99542.75
2019-03-25T23:37:27.783Z,99539.34
2019-03-25T23:39:56.960Z,99544.98
2019-03-25T23:42:26.194Z,99546.61
2019-03-25T23:44:55.378Z,99546.44
2019-03-25T23:47:24.543Z,99554.84
2019-03-25T23:49:53.764Z,99550.23
2019-03-25T23:52:22.953Z,99552.56
2019-03-25T23:54:52.269Z,99550.26
2019-03-25T23:57:21.542Z,99550.06
2019-03-25T23:59:50.746Z,99559.48
